Time;durP1;ratioP1;P1;durP2;ratioP2;P2;SDS_P1;SDS_P2;PMS_P1;PMS_P2;Temp;Humidity;BMP_temperature;BMP_pressure;BME280_temperature;BME280_humidity;BME280_pressure;Samples;Min_cycle;Max_cycle;Signal;HPM_P1;HPM_P2
2022/05/28 00:02:22;;;;;;;12.30;2.13;;;10.90;99.90;;;;;;4954139;29;20054;-90
2022/05/28 00:04:48;;;;;;;12.02;1.90;;;10.90;99.90;;;;;;4955529;29;20039;-91
2022/05/28 00:07:13;;;;;;;12.35;2.40;;;11.00;99.90;;;;;;4957222;29;20129;-89
2022/05/28 00:09:39;;;;;;;12.85;2.72;;;11.00;99.90;;;;;;4953575;29;20050;-91
2022/05/28 00:12:05;;;;;;;10.70;2.00;;;11.00;99.90;;;;;;4954321;29;20043;-90
2022/05/28 00:14:30;;;;;;;11.32;2.13;;;10.90;99.90;;;;;;4954311;29;20042;-91
2022/05/28 00:16:56;;;;;;;9.73;2.20;;;10.80;99.90;;;;;;4955501;29;20051;-92
2022/05/28 00:19:22;;;;;;;12.40;2.20;;;10.80;99.90;;;;;;4959892;29;20078;-94
2022/05/28 00:21:48;;;;;;;11.73;1.90;;;10.60;99.90;;;;;;4955240;29;20053;-94
2022/05/28 00:24:13;;;;;;;9.77;2.05;;;10.60;99.90;;;;;;4955201;29;20036;-93
2022/05/28 00:26:41;;;;;;;12.93;2.33;;;10.50;99.90;;;;;;4955622;29;20035;-92
2022/05/28 00:29:07;;;;;;;9.48;2.05;;;10.50;99.90;;;;;;4954949;29;20069;-93
2022/05/28 00:31:32;;;;;;;7.32;2.50;;;10.40;99.90;;;;;;4953864;29;20492;-93
2022/05/28 00:33:58;;;;;;;9.30;2.33;;;10.30;99.90;;;;;;4954715;29;20047;-93
2022/05/28 00:36:23;;;;;;;7.57;1.80;;;10.20;99.90;;;;;;4952718;29;20102;-93
2022/05/28 00:38:49;;;;;;;8.13;2.03;;;10.10;99.90;;;;;;4953613;29;20078;-93
2022/05/28 00:41:15;;;;;;;6.82;1.50;;;10.10;99.90;;;;;;4955104;29;20515;-94
2022/05/28 00:43:43;;;;;;;6.45;1.80;;;10.00;99.90;;;;;;4954282;29;20432;-93
2022/05/28 00:46:11;;;;;;;5.55;1.40;;;9.90;99.90;;;;;;4955177;29;20099;-92
2022/05/28 00:48:40;;;;;;;7.88;1.90;;;9.90;99.90;;;;;;4954158;29;20186;-93
2022/05/28 00:51:09;;;;;;;6.90;1.70;;;9.80;99.90;;;;;;4953789;29;20047;-93
2022/05/28 00:53:35;;;;;;;7.25;1.58;;;9.70;99.90;;;;;;4955022;29;20051;-93
2022/05/28 00:56:03;;;;;;;9.80;1.98;;;9.70;99.90;;;;;;4960009;28;20047;-92
2022/05/28 00:58:29;;;;;;;10.32;1.90;;;9.70;99.90;;;;;;4959920;29;20043;-91
2022/05/28 01:00:56;;;;;;;8.75;1.90;;;9.70;99.90;;;;;;4956497;29;20142;-93
2022/05/28 01:03:41;;;;;;;12.07;1.90;;;9.70;99.90;;;;;;4956767;29;20055;-93
2022/05/28 01:06:13;;;;;;;8.32;1.95;;;9.70;99.90;;;;;;4956767;29;20054;-92
2022/05/28 01:08:52;;;;;;;6.55;1.60;;;9.70;99.90;;;;;;4960964;29;20055;-91
2022/05/28 01:11:23;;;;;;;9.77;1.90;;;9.70;99.90;;;;;;4958890;28;20384;-93
2022/05/28 01:13:58;;;;;;;7.30;1.83;;;9.70;99.90;;;;;;4962646;29;20055;-93
2022/05/28 01:16:35;;;;;;;10.18;1.85;;;9.60;99.90;;;;;;4967722;29;20049;-92
2022/05/28 01:19:35;;;;;;;8.10;1.85;;;9.60;99.90;;;;;;4956225;29;20098;-92
2022/05/28 01:22:15;;;;;;;13.38;2.58;;;9.50;99.90;;;;;;4955254;29;20095;-91
2022/05/28 01:24:54;;;;;;;12.20;2.47;;;9.50;99.90;;;;;;4964965;29;20035;-93
2022/05/28 01:27:38;;;;;;;10.52;2.15;;;9.50;99.90;;;;;;4959952;29;20095;-92
2022/05/28 01:30:10;;;;;;;8.77;2.00;;;9.50;99.90;;;;;;4957663;29;20047;-92
2022/05/28 01:32:37;;;;;;;9.60;1.80;;;9.40;99.90;;;;;;4957337;29;20399;-91
2022/05/28 01:35:07;;;;;;;9.27;2.25;;;9.40;99.90;;;;;;4957561;29;20039;-93
2022/05/28 01:37:34;;;;;;;9.73;1.92;;;9.40;99.90;;;;;;4956404;29;20051;-92
2022/05/28 01:40:03;;;;;;;13.55;2.40;;;9.40;99.90;;;;;;4955871;29;20872;-91
2022/05/28 01:42:30;;;;;;;10.07;2.20;;;9.30;99.90;;;;;;4956178;29;20051;-93
2022/05/28 01:44:57;;;;;;;10.48;2.13;;;9.30;99.90;;;;;;4956203;29;20058;-92
2022/05/28 01:47:23;;;;;;;11.40;2.25;;;9.30;99.90;;;;;;4955405;29;20464;-92
2022/05/28 01:49:49;;;;;;;10.68;2.08;;;9.30;99.90;;;;;;4955910;29;20050;-92
2022/05/28 01:52:18;;;;;;;13.73;2.00;;;9.30;99.90;;;;;;4957307;29;20527;-90
2022/05/28 01:54:46;;;;;;;11.82;2.28;;;9.30;99.90;;;;;;4961124;29;20040;-92
2022/05/28 01:57:13;;;;;;;14.10;1.95;;;9.30;99.90;;;;;;4957341;29;20043;-91
2022/05/28 01:59:39;;;;;;;8.35;1.75;;;9.30;99.90;;;;;;4957088;29;20059;-93
2022/05/28 02:02:09;;;;;;;15.02;2.33;;;9.30;99.90;;;;;;4956248;29;20056;-92
2022/05/28 02:04:37;;;;;;;10.00;1.92;;;9.30;99.90;;;;;;4955449;29;20043;-93
2022/05/28 02:07:03;;;;;;;10.65;2.08;;;9.20;99.90;;;;;;4955706;28;20043;-92
2022/05/28 02:09:33;;;;;;;8.57;1.95;;;9.20;99.90;;;;;;4955659;29;20051;-90
2022/05/28 02:12:23;;;;;;;9.60;2.10;;;9.10;99.90;;;;;;4959658;29;20043;-92
2022/05/28 02:15:15;;;;;;;9.75;1.77;;;9.10;99.90;;;;;;4956389;29;20046;-92
2022/05/28 02:17:50;;;;;;;10.73;2.40;;;9.10;99.90;;;;;;4956342;29;20169;-92
2022/05/28 02:20:32;;;;;;;14.07;2.10;;;9.00;99.90;;;;;;4956934;29;20050;-92
2022/05/28 02:23:07;;;;;;;10.68;2.03;;;9.00;99.90;;;;;;4955683;29;20053;-91
2022/05/28 02:25:52;;;;;;;12.93;2.15;;;8.90;99.90;;;;;;4955591;29;20051;-91
2022/05/28 02:28:22;;;;;;;10.10;2.00;;;8.90;99.90;;;;;;4955960;29;20051;-92
2022/05/28 02:30:50;;;;;;;7.30;2.08;;;8.90;99.90;;;;;;4956526;29;20122;-93
2022/05/28 02:33:16;;;;;;;7.45;2.30;;;8.90;99.90;;;;;;4956507;29;20055;-92
2022/05/28 02:35:42;;;;;;;11.68;2.30;;;8.80;99.90;;;;;;4955705;29;20050;-91
2022/05/28 02:38:07;;;;;;;10.05;1.90;;;8.80;99.90;;;;;;4955183;29;20134;-92
2022/05/28 02:40:33;;;;;;;10.48;2.13;;;8.80;99.90;;;;;;4955338;29;20103;-92
2022/05/28 02:42:58;;;;;;;12.82;2.10;;;8.70;99.90;;;;;;4954036;29;20120;-92
2022/05/28 02:45:24;;;;;;;8.32;1.95;;;8.70;99.90;;;;;;4954970;29;20054;-91
2022/05/28 02:47:49;;;;;;;10.15;1.83;;;8.60;99.90;;;;;;4955974;29;20475;-93
2022/05/28 02:50:15;;;;;;;10.50;2.10;;;8.60;99.90;;;;;;4955467;29;20411;-92
2022/05/28 02:52:40;;;;;;;11.95;2.30;;;8.60;99.90;;;;;;4954858;29;20039;-93
2022/05/28 02:55:07;;;;;;;12.75;2.13;;;8.60;99.90;;;;;;4955136;29;20480;-92
2022/05/28 02:57:33;;;;;;;9.32;2.10;;;8.50;99.90;;;;;;4954952;29;20485;-92
2022/05/28 02:59:58;;;;;;;9.75;2.13;;;8.50;99.90;;;;;;4954424;29;20079;-92
2022/05/28 03:02:27;;;;;;;10.15;2.00;;;8.50;99.90;;;;;;4954660;29;20083;-92
2022/05/28 03:04:52;;;;;;;10.45;2.00;;;8.50;99.90;;;;;;4953404;29;20511;-93
2022/05/28 03:07:18;;;;;;;10.60;2.05;;;8.50;99.90;;;;;;4955566;29;20126;-92
2022/05/28 03:09:43;;;;;;;11.67;2.20;;;8.50;99.90;;;;;;4955365;29;20091;-91
2022/05/28 03:12:09;;;;;;;13.53;2.10;;;8.50;99.90;;;;;;4953943;29;20051;-91
2022/05/28 03:14:36;;;;;;;9.17;2.10;;;8.40;99.90;;;;;;4955309;29;20176;-92
2022/05/28 03:17:02;;;;;;;8.25;1.90;;;8.40;99.90;;;;;;4958163;29;20058;-92
2022/05/28 03:19:27;;;;;;;8.83;1.90;;;8.40;99.90;;;;;;4953038;28;20057;-91
2022/05/28 03:21:53;;;;;;;14.90;2.63;;;8.40;99.90;;;;;;4954228;29;20130;-91
2022/05/28 03:24:18;;;;;;;9.15;2.05;;;8.40;99.90;;;;;;4954553;29;20050;-92
2022/05/28 03:26:44;;;;;;;12.65;2.38;;;8.40;99.90;;;;;;4954847;29;20039;-92
2022/05/28 03:29:10;;;;;;;9.07;2.20;;;8.50;99.90;;;;;;4958874;29;20055;-91
2022/05/28 03:31:35;;;;;;;9.00;2.00;;;8.50;99.90;;;;;;4956698;29;20051;-92
2022/05/28 03:34:01;;;;;;;9.97;2.10;;;8.50;99.90;;;;;;4955252;29;20066;-92
2022/05/28 03:36:28;;;;;;;11.60;2.47;;;8.50;99.90;;;;;;4955313;29;20070;-92
2022/05/28 03:38:53;;;;;;;8.93;2.37;;;8.50;99.90;;;;;;4953409;29;20043;-92
2022/05/28 03:41:19;;;;;;;11.60;2.33;;;8.40;99.90;;;;;;4955137;29;20488;-92
2022/05/28 03:43:45;;;;;;;11.10;2.10;;;8.50;99.90;;;;;;4955111;29;20050;-92
2022/05/28 03:46:42;;;;;;;14.87;2.80;;;8.60;99.90;;;;;;4954595;29;20443;-92
2022/05/28 03:49:18;;;;;;;10.97;2.00;;;8.60;99.90;;;;;;4947007;28;20495;-92
2022/05/28 03:51:43;;;;;;;8.93;2.20;;;8.70;99.90;;;;;;4955580;29;20491;-92
2022/05/28 03:54:09;;;;;;;13.27;2.35;;;8.70;99.90;;;;;;4958959;29;20047;-91
2022/05/28 03:56:39;;;;;;;10.33;2.37;;;8.70;99.90;;;;;;4961516;29;20562;-91
2022/05/28 03:59:06;;;;;;;13.33;2.23;;;8.80;99.90;;;;;;4954706;29;20130;-91
2022/05/28 04:01:33;;;;;;;11.03;2.20;;;8.80;99.90;;;;;;4953036;29;20521;-91
2022/05/28 04:03:58;;;;;;;13.70;2.30;;;8.80;99.90;;;;;;4953009;29;20555;-92
2022/05/28 04:06:24;;;;;;;10.43;2.35;;;8.90;99.90;;;;;;4953528;28;20043;-90
2022/05/28 04:08:50;;;;;;;8.85;2.00;;;8.90;99.90;;;;;;4973778;28;20054;-92
2022/05/28 04:11:17;;;;;;;12.45;2.55;;;8.90;99.90;;;;;;4956493;28;20086;-92
2022/05/28 04:13:43;;;;;;;14.18;2.38;;;9.00;99.90;;;;;;4973010;28;20924;-92
2022/05/28 04:16:09;;;;;;;11.27;2.55;;;9.00;99.90;;;;;;4974266;28;20375;-91
2022/05/28 04:18:35;;;;;;;7.00;2.00;;;9.10;99.90;;;;;;4959699;28;20420;-91
2022/05/28 04:21:01;;;;;;;11.93;2.88;;;9.10;99.90;;;;;;4976633;28;20109;-91
2022/05/28 04:23:27;;;;;;;9.73;2.20;;;9.20;99.90;;;;;;4956816;28;20046;-91
2022/05/28 04:25:53;;;;;;;12.90;2.17;;;9.10;99.90;;;;;;4973947;28;20046;-92
2022/05/28 04:28:18;;;;;;;10.82;2.20;;;9.20;99.90;;;;;;4973348;28;20098;-92
2022/05/28 04:30:47;;;;;;;11.82;2.28;;;9.10;99.90;;;;;;4957212;28;20049;-92
2022/05/28 04:33:12;;;;;;;13.23;2.35;;;9.10;99.90;;;;;;4960820;28;20043;-92
2022/05/28 04:35:38;;;;;;;12.60;2.20;;;9.00;99.90;;;;;;4976333;28;20406;-91
2022/05/28 04:38:04;;;;;;;9.98;2.40;;;9.10;99.90;;;;;;4977712;28;20121;-91
2022/05/28 04:40:29;;;;;;;12.27;2.40;;;9.10;99.90;;;;;;4977737;28;20537;-92
2022/05/28 04:42:55;;;;;;;11.68;2.15;;;9.20;99.90;;;;;;4959478;28;20149;-92
2022/05/28 04:45:21;;;;;;;13.63;2.40;;;9.70;99.90;;;;;;4960658;28;20549;-92
2022/05/28 04:47:46;;;;;;;10.80;2.30;;;9.10;99.90;;;;;;4960227;28;20053;-92
2022/05/28 04:50:12;;;;;;;11.52;2.42;;;9.10;99.90;;;;;;4959575;28;20046;-92
2022/05/28 04:52:44;;;;;;;15.07;2.55;;;9.20;99.90;;;;;;4977611;28;20053;-92
2022/05/28 04:55:11;;;;;;;9.88;2.10;;;10.00;99.90;;;;;;4960085;28;20535;-91
2022/05/28 04:57:37;;;;;;;11.45;2.75;;;9.20;99.90;;;;;;4976666;28;20085;-91
2022/05/28 05:00:06;;;;;;;9.15;2.20;;;9.20;99.90;;;;;;4965147;28;20078;-90
2022/05/28 05:02:36;;;;;;;11.15;2.30;;;9.30;99.90;;;;;;4977777;28;20078;-92
2022/05/28 05:05:05;;;;;;;8.88;2.25;;;9.30;99.90;;;;;;4978688;28;20050;-91
2022/05/28 05:07:31;;;;;;;9.25;2.83;;;9.30;99.90;;;;;;4985638;28;20057;-91
2022/05/28 05:09:56;;;;;;;10.63;2.53;;;9.30;99.90;;;;;;4996122;28;20038;-91
2022/05/28 05:12:22;;;;;;;10.50;2.47;;;9.30;99.90;;;;;;4997039;28;20046;-92
2022/05/28 05:14:53;;;;;;;11.77;2.72;;;9.40;99.90;;;;;;4978566;28;20056;-92
2022/05/28 05:17:21;;;;;;;11.88;2.10;;;8.90;99.90;;;;;;4996047;28;20056;-92
2022/05/28 05:19:47;;;;;;;13.38;2.40;;;9.50;99.90;;;;;;4995781;28;20046;-91
2022/05/28 05:22:13;;;;;;;12.65;2.53;;;9.70;99.90;;;;;;4980614;28;20482;-91
2022/05/28 05:24:38;;;;;;;15.88;2.75;;;9.70;99.90;;;;;;4997403;28;20050;-92
2022/05/28 05:27:04;;;;;;;13.20;2.85;;;9.80;99.90;;;;;;4996298;28;20038;-92
2022/05/28 05:29:30;;;;;;;13.95;2.38;;;9.90;99.90;;;;;;4978691;28;20100;-92
2022/05/28 05:31:56;;;;;;;13.88;3.03;;;10.10;99.90;;;;;;4993982;28;20062;-91
2022/05/28 05:34:22;;;;;;;11.35;2.58;;;10.30;99.90;;;;;;4978551;28;20043;-91
2022/05/28 05:36:48;;;;;;;14.15;2.30;;;10.40;99.90;;;;;;4995995;28;20046;-91
2022/05/28 05:39:13;;;;;;;13.27;2.70;;;10.40;99.90;;;;;;4995640;28;20050;-92
2022/05/28 05:41:40;;;;;;;11.55;2.13;;;10.40;99.90;;;;;;4993992;28;20069;-91
2022/05/28 05:44:06;;;;;;;16.10;2.63;;;10.40;99.90;;;;;;4996055;28;20464;-91
2022/05/28 05:46:31;;;;;;;10.85;2.22;;;10.40;99.90;;;;;;4977652;28;20133;-91
2022/05/28 05:48:57;;;;;;;16.17;3.05;;;10.40;99.90;;;;;;4995541;28;20050;-91
2022/05/28 05:51:23;;;;;;;12.13;2.30;;;10.50;99.90;;;;;;4994653;28;20104;-92
2022/05/28 05:53:48;;;;;;;12.80;2.58;;;10.60;99.90;;;;;;4977346;28;20100;-92
2022/05/28 05:56:14;;;;;;;14.10;2.58;;;10.70;99.90;;;;;;4995764;28;20049;-91
2022/05/28 05:58:40;;;;;;;12.00;2.60;;;10.70;99.90;;;;;;4978117;28;20482;-90
2022/05/28 06:01:06;;;;;;;14.13;2.65;;;10.80;99.90;;;;;;4977288;28;20540;-91
2022/05/28 06:03:32;;;;;;;13.98;2.75;;;10.80;99.90;;;;;;4995350;28;20054;-91
2022/05/28 06:06:02;;;;;;;13.77;2.60;;;10.80;99.90;;;;;;4994535;28;20050;-91
2022/05/28 06:08:28;;;;;;;12.13;3.35;;;10.90;99.90;;;;;;4995792;28;20089;-91
2022/05/28 06:10:54;;;;;;;13.82;2.50;;;11.00;99.90;;;;;;4995219;28;20050;-91
2022/05/28 06:13:19;;;;;;;13.98;2.85;;;10.90;99.90;;;;;;4994612;28;20104;-91
2022/05/28 06:15:45;;;;;;;16.98;3.00;;;10.90;99.90;;;;;;4995379;28;20116;-91
2022/05/28 06:18:15;;;;;;;13.82;2.95;;;10.90;99.90;;;;;;4978448;28;20051;-91
2022/05/28 06:20:43;;;;;;;14.27;2.78;;;10.90;99.90;;;;;;4974623;28;20053;-96
2022/05/28 06:23:09;;;;;;;12.88;2.63;;;11.00;99.90;;;;;;4983513;28;20058;-96
2022/05/28 06:25:38;;;;;;;10.32;2.20;;;11.10;99.90;;;;;;4963415;28;20051;-96
2022/05/28 06:28:04;;;;;;;17.23;3.17;;;11.30;99.90;;;;;;4975952;28;20037;-96
2022/05/28 06:30:30;;;;;;;12.60;2.50;;;11.50;99.90;;;;;;4971290;28;20053;-94
2022/05/28 06:32:56;;;;;;;13.38;2.50;;;11.60;99.90;;;;;;4969369;28;20023;-96
2022/05/28 06:35:21;;;;;;;11.75;2.60;;;11.70;99.90;;;;;;4987629;28;20192;-96
2022/05/28 06:37:50;;;;;;;12.27;2.58;;;11.70;99.90;;;;;;4969306;28;20482;-96
2022/05/28 06:40:18;;;;;;;14.77;2.67;;;12.10;99.90;;;;;;4971844;28;20069;-93
2022/05/28 06:42:46;;;;;;;11.40;2.65;;;11.70;99.90;;;;;;4963264;28;20129;-91
2022/05/28 06:45:15;;;;;;;11.95;2.75;;;12.10;99.90;;;;;;4958443;28;20039;-93
2022/05/28 06:47:50;;;;;;;12.10;2.70;;;12.70;99.90;;;;;;4974994;28;20163;-93
2022/05/28 06:53:04;;;;;;;14.32;2.97;;;11.90;99.90;;;;;;4976897;28;20082;-92
2022/05/28 06:55:29;;;;;;;11.50;2.50;;;11.90;99.90;;;;;;4978744;28;20057;-93
2022/05/28 06:57:57;;;;;;;14.52;2.30;;;12.00;99.90;;;;;;4975689;28;20408;-92
2022/05/28 07:00:23;;;;;;;11.05;2.42;;;12.00;99.90;;;;;;4970355;28;20113;-93
2022/05/28 07:03:00;;;;;;;11.25;2.60;;;12.20;99.90;;;;;;4940960;28;20050;-92
2022/05/28 07:05:28;;;;;;;10.20;2.22;;;12.10;99.90;;;;;;4975076;28;20054;-94
2022/05/28 07:07:54;;;;;;;14.15;2.58;;;12.20;99.90;;;;;;4957302;28;20047;-91
2022/05/28 07:10:29;;;;;;;11.85;2.20;;;12.30;99.90;;;;;;4956937;28;20503;-92
2022/05/28 07:13:00;;;;;;;13.73;2.60;;;12.60;99.90;;;;;;4957418;28;20043;-91
2022/05/28 07:15:39;;;;;;;10.65;2.38;;;12.80;99.90;;;;;;4974176;28;20134;-93
2022/05/28 07:18:05;;;;;;;9.93;2.65;;;13.20;99.90;;;;;;4976657;28;20060;-94
2022/05/28 07:20:33;;;;;;;10.98;2.58;;;12.50;99.90;;;;;;4958349;28;20035;-95
2022/05/28 07:22:59;;;;;;;12.57;2.65;;;12.60;99.90;;;;;;4957516;28;20039;-95
2022/05/28 07:25:24;;;;;;;14.00;2.80;;;11.90;99.90;;;;;;4957437;28;20054;-95
2022/05/28 07:27:53;;;;;;;14.63;2.60;;;11.50;99.90;;;;;;4957991;28;20046;-94
2022/05/28 07:30:18;;;;;;;13.30;2.80;;;11.60;99.90;;;;;;4962721;28;20043;-96
2022/05/28 07:32:58;;;;;;;12.43;2.40;;;11.60;99.90;;;;;;4958614;28;20388;-95
2022/05/28 07:35:29;;;;;;;10.30;2.65;;;11.60;99.90;;;;;;4958432;28;20058;-94
2022/05/28 07:37:55;;;;;;;7.60;2.03;;;11.90;99.90;;;;;;4975230;28;20057;-96
2022/05/28 07:40:22;;;;;;;10.95;2.35;;;12.00;99.90;;;;;;4958807;28;20137;-96
2022/05/28 07:42:47;;;;;;;10.68;2.33;;;12.60;99.90;;;;;;4975341;28;20137;-96
2022/05/28 07:45:13;;;;;;;9.20;2.10;;;12.30;99.90;;;;;;4957586;28;20090;-93
2022/05/28 07:47:45;;;;;;;12.18;2.58;;;13.30;99.90;;;;;;4958140;28;20144;-96
2022/05/28 07:50:10;;;;;;;8.73;2.30;;;12.50;99.90;;;;;;4958678;28;20050;-96
2022/05/28 07:52:36;;;;;;;8.40;2.17;;;12.60;99.90;;;;;;4973544;28;20395;-90
2022/05/28 07:55:14;;;;;;;11.30;2.05;;;12.60;99.90;;;;;;4976698;28;20046;-95
2022/05/28 07:57:51;;;;;;;13.00;2.33;;;12.30;99.90;;;;;;4974406;28;20047;-93
2022/05/28 08:00:19;;;;;;;9.07;2.13;;;12.10;99.90;;;;;;4978507;23;20434;-95
2022/05/28 08:03:00;;;;;;;8.43;2.10;;;12.60;99.90;;;;;;4976869;28;20087;-94
2022/05/28 08:05:26;;;;;;;10.98;2.15;;;13.30;99.90;;;;;;4976488;28;20043;-93
2022/05/28 08:07:52;;;;;;;11.93;2.28;;;13.30;99.90;;;;;;4975649;28;20038;-94
2022/05/28 08:10:20;;;;;;;9.40;2.10;;;12.90;99.90;;;;;;4977122;28;20379;-94
2022/05/28 08:12:46;;;;;;;8.13;2.20;;;14.00;99.90;;;;;;4992720;28;20042;-92
2022/05/28 08:15:14;;;;;;;8.73;2.30;;;13.00;99.90;;;;;;4994308;28;20042;-90
2022/05/28 08:17:40;;;;;;;8.43;2.05;;;13.60;99.90;;;;;;4994444;28;20054;-90
2022/05/28 08:20:06;;;;;;;8.52;2.10;;;12.90;99.90;;;;;;4992631;28;20046;-91
2022/05/28 08:25:31;;;;;;;12.85;2.30;;;13.20;99.90;;;;;;4993127;28;20038;-92
2022/05/28 08:28:03;;;;;;;12.23;2.60;;;14.00;99.90;;;;;;4992399;28;20486;-91
2022/05/28 08:30:29;;;;;;;11.50;2.20;;;13.30;99.90;;;;;;4976134;28;20053;-89
2022/05/28 08:33:01;;;;;;;13.93;2.58;;;13.50;99.90;;;;;;4994670;28;20038;-91
2022/05/28 08:35:37;;;;;;;13.70;2.80;;;13.50;99.90;;;;;;4975793;28;20113;-91
2022/05/28 08:38:12;;;;;;;15.75;2.70;;;13.50;99.90;;;;;;4975507;28;20406;-94
2022/05/28 08:40:43;;;;;;;14.30;3.47;;;13.80;99.90;;;;;;4976248;28;20129;-91
2022/05/28 08:43:30;;;;;;;14.63;3.03;;;13.90;99.90;;;;;;4994428;28;20049;-96
2022/05/28 08:46:09;;;;;;;14.70;2.83;;;14.00;99.90;;;;;;4976447;28;20050;-90
2022/05/28 08:48:53;;;;;;;12.95;2.58;;;13.80;99.90;;;;;;4992893;28;20031;-90
2022/05/28 08:51:52;;;;;;;13.18;2.95;;;13.80;99.90;;;;;;4993355;28;20046;-86
2022/05/28 08:54:29;;;;;;;13.50;3.28;;;13.70;99.90;;;;;;4993198;28;20104;-88
2022/05/28 08:57:01;;;;;;;9.90;2.70;;;13.90;99.90;;;;;;4974683;28;20077;-86
2022/05/28 08:59:34;;;;;;;10.05;2.45;;;14.20;99.90;;;;;;4993673;28;20098;-89
2022/05/28 09:02:01;;;;;;;11.80;2.70;;;14.50;99.90;;;;;;4974559;28;20046;-88
2022/05/28 09:04:35;;;;;;;12.40;2.85;;;14.50;99.90;;;;;;4975357;28;20074;-88
2022/05/28 09:07:05;;;;;;;11.20;2.47;;;14.60;99.90;;;;;;4975529;28;20053;-90
2022/05/28 09:09:47;;;;;;;13.55;2.53;;;14.60;99.90;;;;;;4974425;28;20092;-89
2022/05/28 09:12:30;;;;;;;14.55;2.78;;;14.50;99.90;;;;;;4973500;28;20042;-88
2022/05/28 09:14:56;;;;;;;11.25;2.70;;;14.70;99.90;;;;;;4956089;28;20039;-89
2022/05/28 09:17:35;;;;;;;13.40;2.83;;;14.80;99.90;;;;;;4956955;28;20450;-88
2022/05/28 09:20:08;;;;;;;12.68;2.97;;;14.50;99.90;;;;;;4959522;28;20043;-88
2022/05/28 09:22:34;;;;;;;12.88;2.55;;;14.30;99.90;;;;;;4959516;28;20039;-89
2022/05/28 09:24:59;;;;;;;11.68;2.97;;;13.90;99.90;;;;;;4958079;28;20057;-89
2022/05/28 09:27:59;;;;;;;12.90;2.67;;;13.60;99.90;;;;;;4959113;28;20081;-87
2022/05/28 09:30:33;;;;;;;12.60;2.88;;;13.20;99.90;;;;;;4976217;28;20498;-90
2022/05/28 09:33:14;;;;;;;12.32;2.72;;;13.10;99.90;;;;;;4960023;28;20125;-91
2022/05/28 09:36:03;;;;;;;11.15;2.50;;;13.10;99.90;;;;;;4976940;28;20102;-89
2022/05/28 09:38:50;;;;;;;13.65;2.60;;;13.40;99.90;;;;;;4961360;28;20047;-92
2022/05/28 09:41:22;;;;;;;11.38;3.17;;;13.60;99.90;;;;;;4978530;28;20055;-92
2022/05/28 09:44:16;;;;;;;12.05;2.50;;;13.60;99.90;;;;;;4977596;28;20038;-92
2022/05/28 09:46:44;;;;;;;11.43;2.70;;;13.90;99.90;;;;;;4976044;28;20042;-91
2022/05/28 09:49:15;;;;;;;13.52;2.78;;;14.20;99.90;;;;;;4999998;28;20117;-91
2022/05/28 09:52:12;;;;;;;14.73;2.97;;;14.10;99.90;;;;;;4995497;28;20076;-91
2022/05/28 09:54:38;;;;;;;11.40;3.05;;;14.40;99.90;;;;;;4978856;28;20034;-92
2022/05/28 09:57:31;;;;;;;12.38;2.85;;;14.70;99.90;;;;;;4995727;28;20529;-91
2022/05/28 10:00:03;;;;;;;14.82;3.10;;;14.90;99.90;;;;;;4985375;28;20057;-89
2022/05/28 10:02:39;;;;;;;13.13;3.17;;;14.80;99.90;;;;;;4958766;28;20051;-89
2022/05/28 10:05:09;;;;;;;10.90;2.65;;;14.60;99.90;;;;;;4957908;28;20054;-89
2022/05/28 10:07:38;;;;;;;12.35;2.70;;;14.40;99.90;;;;;;4976321;28;20050;-88
2022/05/28 10:10:27;;;;;;;11.38;2.70;;;14.30;99.90;;;;;;4975963;28;20047;-88
2022/05/28 10:13:04;;;;;;;12.40;2.60;;;14.00;99.90;;;;;;4957659;28;20514;-89
2022/05/28 10:15:33;;;;;;;13.35;2.50;;;14.10;99.90;;;;;;4980627;28;20093;-88
2022/05/28 10:18:02;;;;;;;10.65;2.53;;;14.10;99.90;;;;;;4995235;28;20053;-88
2022/05/28 10:20:29;;;;;;;11.25;2.50;;;14.10;99.90;;;;;;4994516;28;20560;-90
2022/05/28 10:22:57;;;;;;;9.85;2.22;;;14.40;99.90;;;;;;4994015;28;20532;-89
2022/05/28 10:25:48;;;;;;;10.98;2.53;;;14.60;99.90;;;;;;4995042;28;20050;-89
2022/05/28 10:28:27;;;;;;;12.93;2.30;;;14.70;99.90;;;;;;4994651;28;20046;-88
2022/05/28 10:30:55;;;;;;;11.02;2.58;;;14.60;99.90;;;;;;4962443;28;20125;-87
2022/05/28 10:33:24;;;;;;;14.57;2.80;;;14.40;99.90;;;;;;4974988;28;20047;-91
2022/05/28 10:35:50;;;;;;;12.43;2.78;;;14.10;99.90;;;;;;4978280;28;20053;-87
2022/05/28 10:38:25;;;;;;;10.73;2.45;;;14.20;99.90;;;;;;4962211;28;20035;-92
2022/05/28 10:41:00;;;;;;;13.13;2.55;;;14.30;99.90;;;;;;4983075;28;20053;-91
2022/05/28 10:43:29;;;;;;;11.13;2.45;;;14.30;99.90;;;;;;4959703;28;20039;-93
2022/05/28 10:46:05;;;;;;;12.93;2.35;;;14.10;99.90;;;;;;4976783;28;20042;-94
2022/05/28 10:48:48;;;;;;;10.77;2.40;;;14.50;99.90;;;;;;4958695;28;20054;-94
2022/05/28 10:51:23;;;;;;;;;;;15.00;99.90;;;;;;4976347;28;20051;-93
2022/05/28 10:54:12;;;;;;;11.52;2.40;;;15.20;99.90;;;;;;4975583;28;19928;-95
2022/05/28 10:56:51;;;;;;;12.05;2.88;;;15.30;99.90;;;;;;4975253;28;20053;-90
2022/05/28 10:59:36;;;;;;;12.20;2.75;;;15.00;99.90;;;;;;4958366;28;20058;-90
2022/05/28 11:02:19;;;;;;;15.88;2.67;;;14.80;99.90;;;;;;4960158;28;20060;-95
2022/05/28 11:04:54;;;;;;;11.38;2.90;;;14.50;99.90;;;;;;4957883;28;20156;-90
2022/05/28 11:07:38;;;;;;;10.93;2.67;;;14.10;99.90;;;;;;4956872;28;20134;-89
2022/05/28 11:10:28;;;;;;;16.05;3.10;;;13.40;99.90;;;;;;4956065;28;20047;-92
2022/05/28 11:13:03;;;;;;;16.63;2.80;;;13.10;99.90;;;;;;4971803;28;20042;-93
2022/05/28 11:15:58;;;;;;;11.07;2.58;;;13.10;99.90;;;;;;4955482;28;20050;-89
2022/05/28 11:18:54;;;;;;;12.73;2.55;;;13.10;99.90;;;;;;4957064;28;20042;-88
2022/05/28 11:21:45;;;;;;;9.85;2.08;;;13.30;99.90;;;;;;4958185;28;20132;-92
2022/05/28 11:24:45;;;;;;;11.90;2.58;;;13.60;99.90;;;;;;4974610;28;20487;-92
2022/05/28 11:27:17;;;;;;;13.88;3.05;;;14.10;99.90;;;;;;4957117;28;20051;-92
2022/05/28 11:29:49;;;;;;;12.90;2.58;;;14.40;99.90;;;;;;4956666;28;20050;-88
2022/05/28 11:32:23;;;;;;;10.02;2.45;;;14.70;99.90;;;;;;4974748;28;20043;-88
2022/05/28 11:35:04;;;;;;;9.18;2.10;;;15.00;99.90;;;;;;4957033;28;20114;-89
2022/05/28 11:37:36;;;;;;;10.73;2.25;;;15.30;99.90;;;;;;4973804;28;20403;-90
2022/05/28 11:40:09;;;;;;;10.60;2.30;;;15.50;99.90;;;;;;4955971;28;20049;-89
2022/05/28 11:42:57;;;;;;;12.73;2.50;;;15.70;99.90;;;;;;4956925;28;20074;-89
2022/05/28 11:45:51;;;;;;;9.05;2.13;;;16.10;99.90;;;;;;4963248;28;20053;-88
2022/05/28 11:51:27;;;;;;;12.27;2.88;;;16.00;99.90;;;;;;4956843;28;20247;-92
2022/05/28 11:51:30;;;;;;;8.15;2.28;;;15.60;99.90;;;;;;4959359;28;20050;-86
2022/05/28 11:54:10;;;;;;;8.18;2.10;;;15.00;99.90;;;;;;4971453;28;20054;-87
2022/05/28 11:56:35;;;;;;;9.95;2.35;;;14.50;99.90;;;;;;4970899;28;20447;-88
2022/05/28 11:59:13;;;;;;;11.25;2.38;;;14.20;99.90;;;;;;4974982;28;20100;-90
2022/05/28 12:01:49;;;;;;;12.00;2.70;;;14.00;99.90;;;;;;4994491;28;20565;-88
2022/05/28 12:04:15;;;;;;;13.30;2.50;;;13.90;99.90;;;;;;4975986;28;20046;-87
2022/05/28 12:07:06;;;;;;;11.90;2.65;;;13.90;99.90;;;;;;4992327;28;20085;-89
2022/05/28 12:09:35;;;;;;;13.93;2.40;;;13.90;99.90;;;;;;4967733;28;20455;-90
2022/05/28 12:12:33;;;;;;;12.35;2.88;;;14.20;99.90;;;;;;4992376;28;20078;-87
2022/05/28 12:15:16;;;;;;;12.95;2.60;;;14.70;99.90;;;;;;4975500;28;20046;-87
2022/05/28 12:18:04;;;;;;;12.98;2.53;;;15.00;99.90;;;;;;4975709;28;20482;-88
2022/05/28 12:20:47;;;;;;;5.50;1.80;;;15.00;99.90;;;;;;4992653;28;20125;-88
2022/05/28 12:23:12;;;;;;;12.50;3.15;;;15.20;99.90;;;;;;4975734;28;20042;-89
2022/05/28 12:25:39;;;;;;;10.57;2.38;;;15.60;99.90;;;;;;4992836;28;20486;-87
2022/05/28 12:28:09;;;;;;;10.32;2.33;;;15.80;99.90;;;;;;4974661;28;20484;-88
2022/05/28 12:30:39;;;;;;;9.18;2.28;;;16.30;99.90;;;;;;4992994;28;20057;-88
2022/05/28 12:33:17;;;;;;;9.07;2.25;;;16.60;99.90;;;;;;4992550;28;20093;-89
2022/05/28 12:35:54;;;;;;;10.73;2.45;;;16.60;99.90;;;;;;4975384;28;20046;-89
2022/05/28 12:38:41;;;;;;;12.43;2.35;;;16.20;99.90;;;;;;4975459;28;20058;-88
2022/05/28 12:41:16;;;;;;;11.18;2.38;;;15.80;99.90;;;;;;4974682;28;20038;-87
2022/05/28 12:43:50;;;;;;;11.07;2.38;;;15.70;99.90;;;;;;4975129;28;20426;-88
2022/05/28 12:46:39;;;;;;;10.75;2.47;;;15.40;99.90;;;;;;4977771;28;20394;-95
2022/05/28 12:49:26;;;;;;;11.15;2.50;;;15.30;99.90;;;;;;4976769;28;20491;-94
2022/05/28 12:52:07;;;;;;;12.07;2.42;;;16.10;99.90;;;;;;4979974;28;20043;-88
2022/05/28 12:54:36;;;;;;;11.45;2.33;;;15.50;99.90;;;;;;4985960;28;20089;-90
2022/05/28 12:57:10;;;;;;;11.27;2.78;;;15.50;99.90;;;;;;5005442;28;20077;-91
2022/05/28 12:59:39;;;;;;;10.10;2.20;;;15.80;99.90;;;;;;4989098;28;20133;-92
2022/05/28 13:02:16;;;;;;;14.60;2.53;;;15.30;99.90;;;;;;4995953;28;20170;-89
2022/05/28 13:04:47;;;;;;;14.18;2.85;;;15.00;99.90;;;;;;4996102;28;20101;-86
2022/05/28 13:07:38;;;;;;;11.82;2.40;;;14.90;99.90;;;;;;4978389;28;20101;-86
2022/05/28 13:10:11;;;;;;;12.32;2.50;;;15.30;99.90;;;;;;4993411;28;20073;-89
2022/05/28 13:12:45;;;;;;;12.32;2.63;;;15.70;99.90;;;;;;4977378;28;20050;-88